Detalii statie CORIPLANT MIHALT [0000197B]

Toti senzorii

Date Temperatura solului [C]Precipitatii [mm]Voltaj baterie [mV]Leaf Wetness [Min]HC Air temperature [C]HC Relative humidity [%]Punctul de roua [C]
medieminmaxsumaultimatimpmedieminmaxmediemediemin
2020-06-02 08:00:00 0 7010 9.57 9.28 9.85 100 9.5 9.2
2020-06-02 09:00:00 0 7166 10.86 9.81 12.14 100 10.8 9.8
2020-06-02 10:00:00 0 7186 12.64 11.79 13.52 100 12.5 11.7
2020-06-02 11:00:00 0 7176 15.34 13 16.82 100 15.3 13
2020-06-02 12:00:00 0 7148 17.24 15.55 19.01 92.69 15.9 14.5
2020-06-02 13:00:00 0 7186 15.31 14.38 16.17 93.23 14.1 12.9
2020-06-02 14:00:00 0 7186 15.51 13.03 18.25 88.1 13.3 11.4
2020-06-02 15:00:00 0 7186 16.83 14.54 19.44 85.75 14.2 13
2020-06-02 16:00:00 0 7186 15.91 14.48 17.86 81.43 12.5 11
2020-06-02 17:00:00 0 7196 15.52 14.82 16.25 87.94 13.3 12.3
2020-06-02 18:00:00 0 7186 17.09 16.23 18.03 78.81 13.2 12
2020-06-02 19:00:00 0 7196 16.72 15.7 17.34 79.96 13.1 12.3
2020-06-02 20:00:00 0 7206 14.54 13.76 15.71 83.05 11.5 11.2
2020-06-02 21:00:00 0 6914 12.4 11.07 13.73 94.26 11.3 11
2020-06-02 22:00:00 0 6884 10.03 8.75 10.91 100 9.9 8.7
2020-06-02 23:00:00 0 6864 8.35 7.43 8.87 100 8.3 7.4
2020-06-03 00:00:00 0 6834 8.38 7.7 9.45 100 8.3 7.7
2020-06-03 01:00:00 0 6796 9.08 8.75 9.23 100 9 8.7
2020-06-03 02:00:00 0 6796 8.62 8.48 8.75 100 8.5 8.4
2020-06-03 03:00:00 0 6776 8.52 8.45 8.66 100 8.4 8.4
2020-06-03 04:00:00 0 6786 8.44 8.31 8.59 100 8.4 8.3
2020-06-03 05:00:00 0 6766 8.45 8.31 8.61 100 8.4 8.3
2020-06-03 06:00:00 0 6766 8.43 8.36 8.52 100 8.3 8.3
2020-06-03 07:00:00 0 6816 8.54 8.4 8.75 100 8.5 8.4
2020-06-03 08:00:00 0 7020 10.45 8.89 11.79 100 10.4 8.8
2020-06-03 09:00:00 0 7166 13.05 11.4 14.5 99.52 12.9 11.4
2020-06-03 10:00:00 0 7166 15.54 14.41 16.72 89.66 13.7 13.3
2020-06-03 11:00:00 0 7088 17.51 16.67 18.06 81.91 14.2 13.6
2020-06-03 12:00:00 0 7176 18.45 17.43 19.41 77.33 14.2 13.7
2020-06-03 13:00:00 0 7186 16.15 12.23 19.54 78.98 12.1 11.2
2020-06-03 14:00:00 0 7176 17.18 12.73 21.35 89.34 15.1 12.7
2020-06-03 15:00:00 0 7176 20.1 17.49 22.71 74.27 15.2 13.3
2020-06-03 16:00:00 0 7196 16.33 14.49 20 87.18 14 12.6
2020-06-03 17:00:00 0 7176 20.85 19.89 21.56 68.58 14.6 13.3
2020-06-03 18:00:00 0 7166 19.65 18.47 21.1 69.16 13.6 13.2
2020-06-03 19:00:00 0 7186 15.92 15.35 17.26 82.78 12.9 12.3
2020-06-03 20:00:00 0 7186 15.83 15.59 16.02 86.52 13.4 13
2020-06-03 21:00:00 0 6904 14.46 13.54 15.39 94.39 13.4 13.1
2020-06-03 22:00:00 0 6874 12.98 12.58 13.48 99.5 12.8 12.5
2020-06-03 23:00:00 0 6854 12.06 11.21 12.57 100 12 11.2
2020-06-04 00:00:00 0 6834 10.55 9.87 11.12 100 10.5 9.8
2020-06-04 01:00:00 0 6806 9.25 8.62 9.77 100 9.2 8.6
2020-06-04 02:00:00 0 6796 8.27 7.93 8.52 100 8.2 7.9
2020-06-04 03:00:00 0 6776 7.88 7.44 8.4 100 7.8 7.4
2020-06-04 04:00:00 0 6766 6.98 6.3 7.68 100 6.9 6.3
2020-06-04 05:00:00 0 6756 6.35 5.87 6.79 100 6.3 5.8
2020-06-04 06:00:00 0 6756 6.16 5.87 6.42 100 6.1 5.8
2020-06-04 07:00:00 0 6844 7.03 6.44 7.35 100 6.9 6.4